Time;durP1;ratioP1;P1;durP2;ratioP2;P2;SDS_P1;SDS_P2;PMS_P1;PMS_P2;Temp;Humidity;BMP_temperature;BMP_pressure;BME280_temperature;BME280_humidity;BME280_pressure;Samples;Min_cycle;Max_cycle;Signal;HPM_P1;HPM_P2
2023/06/25 03:16:37;;;;;;;6.30;3.03;;;16.60;81.20;;;;;;6181139;22;93730;-70
2023/06/25 03:19:03;;;;;;;5.10;2.70;;;16.50;81.30;;;;;;6247755;22;92346;-72
2023/06/25 03:21:29;;;;;;;6.25;2.63;;;16.50;81.50;;;;;;6247196;22;92412;-72
2023/06/25 03:23:54;;;;;;;4.70;2.78;;;16.50;81.60;;;;;;6246168;22;92851;-71
2023/06/25 03:26:20;;;;;;;6.80;2.58;;;16.50;81.40;;;;;;6247078;22;92197;-71
2023/06/25 03:28:46;;;;;;;4.63;2.50;;;16.40;82.10;;;;;;6247326;22;92066;-72
2023/06/25 03:31:11;;;;;;;5.28;2.47;;;16.30;82.50;;;;;;6247551;22;92855;-74
2023/06/25 03:33:37;;;;;;;5.97;2.45;;;16.40;82.70;;;;;;6246187;22;94175;-72
2023/06/25 03:36:03;;;;;;;5.53;2.67;;;16.40;82.70;;;;;;6245474;22;94196;-74
2023/06/25 03:38:29;;;;;;;4.68;2.53;;;16.40;82.30;;;;;;6247417;22;92661;-72
2023/06/25 03:40:54;;;;;;;4.82;2.42;;;16.40;82.10;;;;;;6246675;22;92599;-73
2023/06/25 03:43:20;;;;;;;4.38;2.50;;;16.50;82.00;;;;;;6246567;22;92424;-74
2023/06/25 03:45:46;;;;;;;6.13;2.90;;;16.50;81.80;;;;;;6246846;22;92842;-73
2023/06/25 03:48:11;;;;;;;5.20;2.85;;;16.50;82.10;;;;;;6247308;22;92550;-73
2023/06/25 03:50:37;;;;;;;5.10;2.20;;;16.50;82.20;;;;;;6247742;22;91627;-72
2023/06/25 03:53:02;;;;;;;5.30;2.72;;;16.70;82.10;;;;;;6246396;22;93590;-72
2023/06/25 03:55:28;;;;;;;4.70;2.80;;;17.00;81.00;;;;;;6246706;22;93394;-75
2023/06/25 03:57:56;;;;;;;7.30;2.92;;;17.40;79.50;;;;;;6245909;22;93480;-75
2023/06/25 04:00:21;;;;;;;6.50;2.92;;;17.90;78.00;;;;;;6247619;22;92335;-71
2023/06/25 04:02:47;;;;;;;8.60;3.30;;;18.40;75.80;;;;;;6244904;22;93128;-73
2023/06/25 04:05:13;;;;;;;6.70;3.05;;;18.70;74.30;;;;;;6246770;22;93351;-74
2023/06/25 04:07:39;;;;;;;5.75;3.05;;;19.00;73.10;;;;;;6246896;22;92468;-72
2023/06/25 04:10:05;;;;;;;8.77;3.90;;;19.20;72.60;;;;;;6220153;22;92401;-73
2023/06/25 04:12:30;;;;;;;4.70;3.47;;;19.70;70.90;;;;;;6246021;22;95260;-73
2023/06/25 04:14:56;;;;;;;6.35;3.47;;;20.10;70.00;;;;;;6246676;22;93178;-71
2023/06/25 04:17:22;;;;;;;7.63;3.60;;;20.50;68.80;;;;;;6213225;22;92305;-74
2023/06/25 04:19:47;;;;;;;7.57;3.20;;;20.80;67.60;;;;;;6216308;22;92544;-70
2023/06/25 04:22:13;;;;;;;4.78;2.90;;;21.10;66.80;;;;;;6214782;22;94333;-70
2023/06/25 04:24:39;;;;;;;5.57;3.33;;;21.40;65.40;;;;;;6215568;22;93183;-72
2023/06/25 04:27:05;;;;;;;6.63;3.55;;;21.70;64.90;;;;;;6215573;22;92354;-70
2023/06/25 04:29:31;;;;;;;6.60;3.45;;;22.10;63.70;;;;;;6216419;22;92246;-76
2023/06/25 04:31:56;;;;;;;9.18;3.55;;;22.40;62.60;;;;;;6215223;22;92869;-73
2023/06/25 04:34:22;;;;;;;5.43;3.63;;;22.70;61.60;;;;;;6215542;22;92945;-70
2023/06/25 04:36:48;;;;;;;7.03;3.42;;;23.00;61.00;;;;;;6215509;22;91941;-74
2023/06/25 04:39:13;;;;;;;6.28;3.40;;;23.30;59.90;;;;;;6216368;22;91768;-72
2023/06/25 04:41:39;;;;;;;5.93;4.05;;;23.70;59.00;;;;;;6215519;22;92488;-73
2023/06/25 04:44:05;;;;;;;4.63;2.95;;;24.00;58.00;;;;;;6215308;22;93258;-73
2023/06/25 04:46:31;;;;;;;4.85;3.00;;;24.40;57.40;;;;;;6215290;22;93486;-69
2023/06/25 04:48:57;;;;;;;6.60;3.20;;;24.90;56.40;;;;;;6216181;22;92340;-71
2023/06/25 04:51:23;;;;;;;6.07;2.95;;;25.30;55.10;;;;;;6213343;22;96146;-71
2023/06/25 04:53:48;;;;;;;5.40;3.65;;;25.70;54.40;;;;;;6215166;22;92637;-74
2023/06/25 04:56:15;;;;;;;4.88;3.55;;;26.10;54.20;;;;;;6215798;22;92348;-71
2023/06/25 04:58:41;;;;;;;5.82;3.17;;;26.50;52.60;;;;;;6216174;22;92219;-69
2023/06/25 05:01:07;;;;;;;7.95;3.33;;;26.70;52.20;;;;;;6215207;22;92633;-70
2023/06/25 05:03:32;;;;;;;5.18;3.60;;;26.90;52.70;;;;;;6214294;22;94457;-71
2023/06/25 05:05:59;;;;;;;4.57;3.60;;;27.60;52.00;;;;;;6215494;22;92267;-72
2023/06/25 05:08:24;;;;;;;6.82;3.33;;;28.60;49.90;;;;;;6215898;22;92662;-71
2023/06/25 05:10:50;;;;;;;6.28;4.30;;;29.30;49.00;;;;;;6214366;22;93517;-72
2023/06/25 05:13:16;;;;;;;7.07;3.78;;;29.40;47.90;;;;;;6215456;22;94187;-71
2023/06/25 05:15:41;;;;;;;7.70;4.00;;;30.00;48.20;;;;;;6215765;22;92291;-74
2023/06/25 05:18:08;;;;;;;6.38;4.00;;;30.30;47.30;;;;;;6215693;22;92847;-73
2023/06/25 05:20:35;;;;;;;4.93;4.35;;;30.40;48.10;;;;;;6215439;22;93811;-73
2023/06/25 05:23:05;;;;;;;6.05;3.97;;;30.50;45.80;;;;;;6214885;22;92279;-73
2023/06/25 05:25:32;;;;;;;7.13;4.03;;;30.70;45.20;;;;;;6215753;22;92068;-73
2023/06/25 05:27:59;;;;;;;4.88;4.22;;;31.00;44.80;;;;;;6216145;22;91753;-72
2023/06/25 05:30:25;;;;;;;6.88;4.75;;;31.20;45.40;;;;;;6215123;22;92284;-71
2023/06/25 05:32:51;;;;;;;5.30;3.42;;;31.80;44.40;;;;;;6214886;22;92301;-72
2023/06/25 05:35:16;;;;;;;5.45;4.57;;;31.80;43.20;;;;;;6214638;22;93271;-72
2023/06/25 05:37:42;;;;;;;8.13;4.85;;;32.20;43.50;;;;;;6215599;22;92906;-70
2023/06/25 05:40:09;;;;;;;5.53;4.53;;;32.50;43.00;;;;;;6214327;22;93324;-72
2023/06/25 05:42:34;;;;;;;7.10;4.22;;;32.10;43.40;;;;;;6213164;22;92374;-72
2023/06/25 05:45:00;;;;;;;6.13;3.65;;;32.20;43.70;;;;;;6213801;22;92475;-74
2023/06/25 05:47:26;;;;;;;5.25;3.22;;;32.60;42.90;;;;;;6214522;22;92004;-72
2023/06/25 05:49:51;;;;;;;5.43;4.38;;;33.10;43.20;;;;;;6213828;22;92774;-71
2023/06/25 05:52:17;;;;;;;5.03;4.38;;;33.80;42.10;;;;;;6214854;22;92812;-73
2023/06/25 05:54:42;;;;;;;8.68;5.78;;;33.90;41.80;;;;;;6215147;22;92749;-74
2023/06/25 05:57:08;;;;;;;5.97;5.18;;;34.10;41.30;;;;;;6214853;22;92366;-71
2023/06/25 05:59:34;;;;;;;8.57;4.78;;;35.10;40.70;;;;;;6213634;22;93204;-71
2023/06/25 06:01:59;;;;;;;6.97;5.03;;;36.20;39.80;;;;;;6214883;22;93181;-72
2023/06/25 06:04:25;;;;;;;4.25;3.85;;;36.60;38.80;;;;;;6216575;22;92282;-71
2023/06/25 06:06:51;;;;;;;6.70;5.60;;;36.60;38.20;;;;;;6216631;22;92814;-72
2023/06/25 06:09:17;;;;;;;5.72;5.13;;;36.50;37.40;;;;;;6214522;22;93630;-71
2023/06/25 06:11:42;;;;;;;21.85;4.45;;;36.00;37.70;;;;;;6215917;22;93157;-70
2023/06/25 06:14:08;;;;;;;6.90;5.10;;;35.40;38.50;;;;;;6214143;22;91875;-70
2023/06/25 06:16:34;;;;;;;6.57;4.72;;;36.10;38.40;;;;;;6216586;22;91916;-67
2023/06/25 06:19:00;;;;;;;6.15;5.00;;;36.30;37.90;;;;;;6215802;22;93455;-71
2023/06/25 06:21:25;;;;;;;10.57;5.20;;;36.60;37.60;;;;;;6215405;22;93145;-72
2023/06/25 06:23:52;;;;;;;6.13;5.53;;;36.90;37.10;;;;;;6215285;22;93201;-71
2023/06/25 06:26:17;;;;;;;7.18;5.20;;;37.40;36.20;;;;;;6215238;22;92147;-72
2023/06/25 06:28:43;;;;;;;5.20;4.68;;;38.20;36.40;;;;;;6214958;22;92823;-73
2023/06/25 06:31:09;;;;;;;6.25;5.65;;;39.10;35.80;;;;;;6215526;22;92429;-73
2023/06/25 06:33:34;;;;;;;6.60;5.82;;;38.80;35.10;;;;;;6216179;22;92323;-71
2023/06/25 06:36:00;;;;;;;6.13;5.53;;;38.50;35.90;;;;;;6214752;22;92606;-72
2023/06/25 06:38:26;;;;;;;6.25;5.65;;;38.50;35.20;;;;;;6214997;22;92551;-72
2023/06/25 06:40:51;;;;;;;4.63;4.20;;;37.90;36.00;;;;;;6214336;22;92956;-70
2023/06/25 06:43:17;;;;;;;6.63;5.80;;;37.70;36.00;;;;;;6189520;22;92385;-74
2023/06/25 06:45:43;;;;;;;6.93;5.63;;;37.90;36.00;;;;;;6215927;22;92247;-72
2023/06/25 06:48:09;;;;;;;5.45;4.88;;;38.00;35.90;;;;;;6214649;22;94473;-72
2023/06/25 06:50:34;;;;;;;4.05;3.65;;;38.50;35.00;;;;;;6215247;22;93142;-73
2023/06/25 06:53:00;;;;;;;8.10;6.72;;;38.80;36.70;;;;;;6216020;22;92465;-72
2023/06/25 06:55:26;;;;;;;5.78;5.28;;;39.70;33.80;;;;;;6215276;22;92450;-71
2023/06/25 06:57:51;;;;;;;6.32;5.72;;;39.80;33.90;;;;;;6215428;22;93526;-72
2023/06/25 07:00:18;;;;;;;6.95;6.35;;;40.40;34.30;;;;;;6215429;22;93309;-72
2023/06/25 07:02:44;;;;;;;5.70;3.88;;;41.50;33.00;;;;;;6188392;22;92412;-72
2023/06/25 07:05:11;;;;;;;6.78;5.78;;;42.20;33.70;;;;;;6214514;22;91777;-71
2023/06/25 07:07:36;;;;;;;7.30;6.60;;;42.90;32.50;;;;;;6215055;22;93098;-71
2023/06/25 07:10:02;;;;;;;7.82;7.03;;;43.40;32.10;;;;;;6215588;22;92791;-71
2023/06/25 07:12:28;;;;;;;8.43;5.18;;;43.20;31.50;;;;;;6214383;22;93408;-72
2023/06/25 07:14:54;;;;;;;7.35;6.55;;;42.60;33.50;;;;;;6215685;22;92458;-71
2023/06/25 07:17:19;;;;;;;10.13;7.45;;;42.60;33.30;;;;;;6215153;22;92885;-72
2023/06/25 07:19:45;;;;;;;9.65;8.52;;;42.90;33.30;;;;;;6215441;22;92436;-75
2023/06/25 07:22:10;;;;;;;10.75;9.45;;;43.40;32.30;;;;;;6214586;22;92532;-72
2023/06/25 07:24:36;;;;;;;8.82;7.97;;;43.60;32.60;;;;;;6216028;22;92485;-74
2023/06/25 07:27:02;;;;;;;9.15;8.35;;;43.70;33.00;;;;;;6215140;22;93089;-74
2023/06/25 07:29:28;;;;;;;9.40;8.25;;;43.20;33.70;;;;;;6215239;22;92603;-72
2023/06/25 07:31:53;;;;;;;10.40;9.50;;;43.30;33.40;;;;;;6215033;22;92602;-72
2023/06/25 07:34:19;;;;;;;9.75;8.85;;;43.20;32.10;;;;;;6216239;22;92299;-72
2023/06/25 07:36:45;;;;;;;9.43;8.63;;;43.30;33.50;;;;;;6214397;22;93611;-72
2023/06/25 07:39:25;;;;;;;9.48;8.32;;;44.00;33.40;;;;;;6215477;22;93242;-73
2023/06/25 07:41:50;;;;;;;10.07;9.18;;;44.40;33.20;;;;;;6215507;22;92478;-72
2023/06/25 07:44:16;;;;;;;9.75;8.85;;;44.50;32.90;;;;;;6215643;22;92368;-73
2023/06/25 07:46:42;;;;;;;10.18;9.00;;;44.50;33.40;;;;;;6213992;22;92462;-73
2023/06/25 07:49:07;;;;;;;10.20;9.15;;;44.80;33.30;;;;;;6213663;22;92970;-72
2023/06/25 07:51:33;;;;;;;9.63;8.75;;;45.00;32.50;;;;;;6216531;22;92308;-72
2023/06/25 07:53:59;;;;;;;9.05;8.20;;;44.80;32.50;;;;;;6216458;22;92011;-72
2023/06/25 07:56:24;;;;;;;8.18;6.18;;;45.20;32.60;;;;;;6215368;22;93126;-73
2023/06/25 07:58:50;;;;;;;9.52;8.73;;;45.50;33.10;;;;;;6214652;22;92930;-72
2023/06/25 08:01:16;;;;;;;10.02;9.15;;;45.90;32.00;;;;;;6215076;22;93325;-72
2023/06/25 08:03:41;;;;;;;9.85;8.88;;;45.90;31.90;;;;;;6216673;22;92508;-73
2023/06/25 08:06:07;;;;;;;10.23;9.32;;;45.20;31.70;;;;;;6188174;22;93841;-74
2023/06/25 08:08:33;;;;;;;11.13;9.20;;;45.20;31.70;;;;;;6215810;22;93401;-72
2023/06/25 08:10:59;;;;;;;9.95;9.13;;;45.40;32.70;;;;;;6216003;22;92319;-73
2023/06/25 08:13:24;;;;;;;9.60;8.60;;;45.80;31.50;;;;;;6215414;22;92055;-72
2023/06/25 08:15:50;;;;;;;9.35;8.55;;;45.30;32.00;;;;;;6215053;22;92744;-72
2023/06/25 08:18:16;;;;;;;11.30;10.10;;;45.60;32.10;;;;;;6214933;22;91967;-71
2023/06/25 08:20:43;;;;;;;10.73;9.82;;;45.00;31.30;;;;;;6214560;22;92478;-71
2023/06/25 08:23:08;;;;;;;9.18;8.30;;;44.90;32.10;;;;;;6216270;22;92381;-70
2023/06/25 08:25:34;;;;;;;10.55;9.55;;;45.50;31.20;;;;;;6214572;22;94128;-69
2023/06/25 08:28:00;;;;;;;11.23;10.32;;;45.70;30.90;;;;;;6215162;22;93875;-70
2023/06/25 08:30:25;;;;;;;10.70;9.80;;;45.10;32.20;;;;;;6214798;22;92364;-69
2023/06/25 08:32:51;;;;;;;10.50;9.60;;;45.80;31.10;;;;;;6215480;22;92568;-70
2023/06/25 08:35:16;;;;;;;11.77;10.57;;;46.20;32.00;;;;;;6215049;22;93737;-70
2023/06/25 08:37:42;;;;;;;11.90;11.00;;;47.00;31.00;;;;;;6214735;22;93873;-70
2023/06/25 08:40:12;;;;;;;10.48;9.57;;;47.30;31.40;;;;;;6213383;22;92377;-72
2023/06/25 08:42:38;;;;;;;11.93;10.93;;;47.20;31.90;;;;;;6216621;22;91954;-69
2023/06/25 08:45:04;;;;;;;10.40;9.40;;;47.20;30.80;;;;;;6213629;22;93851;-68
2023/06/25 08:47:39;;;;;;;11.15;10.05;;;47.40;31.30;;;;;;6188053;22;95902;-69
2023/06/25 08:50:09;;;;;;;11.45;10.55;;;47.20;31.40;;;;;;6187300;22;93420;-70
2023/06/25 08:52:36;;;;;;;11.00;9.90;;;47.70;31.00;;;;;;6214731;22;92555;-71
2023/06/25 08:55:02;;;;;;;10.15;9.30;;;48.00;30.60;;;;;;6213616;22;93235;-70
2023/06/25 08:57:28;;;;;;;11.35;10.25;;;48.30;29.80;;;;;;6215569;22;92737;-69
2023/06/25 08:59:54;;;;;;;11.35;9.60;;;48.10;29.70;;;;;;6214737;22;91987;-70
2023/06/25 09:02:19;;;;;;;12.30;11.00;;;47.80;31.10;;;;;;6215394;22;92505;-68
2023/06/25 09:04:48;;;;;;;14.07;9.85;;;48.00;30.50;;;;;;6214147;22;92723;-71
2023/06/25 09:07:15;;;;;;;13.55;11.77;;;48.00;31.70;;;;;;6215287;22;93231;-70
2023/06/25 09:09:42;;;;;;;8.35;7.57;;;48.10;30.70;;;;;;6214584;22;92459;-70
2023/06/25 09:12:09;;;;;;;11.27;10.38;;;48.40;30.80;;;;;;6215272;22;92586;-69
2023/06/25 09:14:36;;;;;;;9.60;8.80;;;48.70;30.50;;;;;;6213029;22;93951;-71
2023/06/25 09:17:03;;;;;;;11.45;10.43;;;48.40;29.90;;;;;;6212074;22;93269;-71
2023/06/25 09:19:28;;;;;;;11.05;9.88;;;48.70;28.90;;;;;;6213208;22;92272;-70
2023/06/25 09:21:54;;;;;;;11.52;10.48;;;48.80;29.70;;;;;;6215213;22;92412;-69
2023/06/25 09:24:21;;;;;;;10.82;9.73;;;48.90;29.90;;;;;;6212648;22;92375;-70
2023/06/25 09:26:53;;;;;;;10.15;9.13;;;48.40;29.30;;;;;;6213472;22;92367;-70
2023/06/25 09:29:20;;;;;;;12.27;11.27;;;48.20;29.30;;;;;;6214259;22;92462;-70
2023/06/25 09:31:47;;;;;;;11.73;10.52;;;48.00;30.00;;;;;;6213694;22;91744;-70
2023/06/25 09:34:15;;;;;;;9.60;8.80;;;47.40;29.00;;;;;;6212645;22;93437;-71
2023/06/25 09:36:41;;;;;;;10.75;9.88;;;47.20;29.50;;;;;;6212663;22;92975;-70
2023/06/25 09:39:09;;;;;;;10.43;8.90;;;47.10;29.60;;;;;;6215266;22;93257;-70
2023/06/25 09:41:38;;;;;;;10.65;9.77;;;47.50;30.20;;;;;;6216911;22;93161;-70
2023/06/25 09:44:04;;;;;;;9.13;8.20;;;47.70;30.30;;;;;;6216004;22;92526;-70
2023/06/25 09:46:38;;;;;;;10.23;9.38;;;47.50;29.70;;;;;;6216001;22;93463;-69
2023/06/25 09:49:04;;;;;;;9.98;9.13;;;47.40;30.00;;;;;;6216731;22;92521;-69
2023/06/25 09:51:37;;;;;;;8.80;8.02;;;47.20;29.80;;;;;;6217441;22;92042;-70
2023/06/25 09:54:04;;;;;;;8.38;7.68;;;46.10;29.50;;;;;;6215862;22;92935;-69
2023/06/25 09:56:33;;;;;;;;;;;46.20;30.30;;;;;;6217327;22;92755;-69
2023/06/25 09:58:59;;;;;;;9.05;8.25;;;45.90;30.30;;;;;;6217549;22;92288;-70
2023/06/25 10:01:25;;;;;;;8.10;6.88;;;45.30;30.30;;;;;;6214537;22;92337;-69
2023/06/25 10:03:51;;;;;;;7.85;7.15;;;44.80;30.60;;;;;;6213443;22;94353;-69
2023/06/25 10:06:17;;;;;;;7.03;6.43;;;44.00;30.80;;;;;;6215236;22;94083;-71
2023/06/25 10:08:42;;;;;;;5.85;5.25;;;42.60;31.30;;;;;;6214268;22;92403;-71
2023/06/25 10:11:08;;;;;;;5.50;4.88;;;41.40;33.90;;;;;;6215429;22;92524;-71
2023/06/25 10:13:40;;;;;;;5.93;5.32;;;40.10;36.10;;;;;;6214567;22;93223;-70
2023/06/25 10:16:05;;;;;;;5.07;4.57;;;38.70;36.70;;;;;;6214880;22;92769;-70
2023/06/25 10:18:41;;;;;;;5.35;4.85;;;37.80;38.00;;;;;;6158915;22;92333;-72
2023/06/25 10:21:07;;;;;;;5.05;2.88;;;36.60;39.10;;;;;;6186234;22;91605;-71
2023/06/25 10:23:36;;;;;;;4.65;4.15;;;36.00;38.00;;;;;;6184387;22;93672;-70
2023/06/25 10:26:03;;;;;;;6.35;4.47;;;35.30;40.60;;;;;;6184848;22;93000;-69
2023/06/25 10:28:31;;;;;;;8.18;4.63;;;34.50;42.30;;;;;;6184874;22;93470;-70
2023/06/25 10:30:58;;;;;;;5.80;3.50;;;33.90;42.30;;;;;;6186098;22;92490;-69
2023/06/25 10:33:25;;;;;;;6.72;3.78;;;33.60;43.60;;;;;;6184746;22;92611;-70
2023/06/25 10:35:58;;;;;;;5.18;3.38;;;33.50;43.70;;;;;;6179480;22;92647;-69
2023/06/25 10:38:24;;;;;;;6.30;3.72;;;33.30;43.40;;;;;;6183783;22;92470;-70
2023/06/25 10:40:50;;;;;;;3.53;2.50;;;32.90;44.70;;;;;;6158406;22;92343;-72
2023/06/25 10:43:19;;;;;;;5.18;3.50;;;32.80;43.20;;;;;;6184172;22;93430;-70
2023/06/25 10:45:53;;;;;;;4.63;4.05;;;32.80;43.30;;;;;;6157998;22;95529;-72
2023/06/25 10:48:20;;;;;;;4.28;3.15;;;32.40;41.70;;;;;;6185280;22;92438;-69
2023/06/25 10:50:46;;;;;;;3.75;3.22;;;32.10;42.30;;;;;;6185476;22;92399;-70
2023/06/25 10:53:14;;;;;;;7.00;3.10;;;32.10;44.60;;;;;;6182737;22;93451;-70
2023/06/25 10:55:44;;;;;;;6.72;3.70;;;31.90;43.30;;;;;;6183998;22;93627;-73
2023/06/25 10:58:09;;;;;;;4.63;2.70;;;31.60;42.50;;;;;;6184344;22;92326;-69
2023/06/25 11:00:35;;;;;;;5.13;3.13;;;31.60;47.00;;;;;;6184654;22;91989;-71
2023/06/25 11:03:01;;;;;;;3.95;2.70;;;31.70;46.70;;;;;;6184387;22;93862;-69
2023/06/25 11:05:41;;;;;;;4.00;2.88;;;31.80;42.70;;;;;;6184926;22;92684;-70
2023/06/25 11:08:07;;;;;;;3.65;2.97;;;31.60;43.70;;;;;;6184525;22;92380;-71
2023/06/25 11:10:35;;;;;;;3.95;3.28;;;31.60;45.20;;;;;;6185523;22;91429;-70
2023/06/25 11:13:01;;;;;;;4.22;2.97;;;31.60;44.70;;;;;;6184849;22;92403;-70
2023/06/25 11:15:32;;;;;;;4.63;2.50;;;31.60;43.20;;;;;;6184253;22;92824;-71
2023/06/25 11:17:58;;;;;;;3.60;2.88;;;31.50;43.00;;;;;;6206141;22;93279;-70
2023/06/25 11:20:24;;;;;;;4.38;2.92;;;31.40;43.70;;;;;;6214616;22;92164;-70
2023/06/25 11:22:50;;;;;;;5.15;2.85;;;31.40;43.70;;;;;;6215523;22;92683;-70
2023/06/25 11:25:19;;;;;;;3.90;2.75;;;31.50;45.80;;;;;;6215121;22;92264;-71
2023/06/25 11:27:44;;;;;;;5.60;3.20;;;31.40;44.90;;;;;;6189114;22;92397;-72
2023/06/25 11:30:10;;;;;;;4.00;2.83;;;31.40;45.90;;;;;;6216196;22;92335;-71
2023/06/25 11:32:38;;;;;;;3.70;2.92;;;31.20;44.30;;;;;;6212361;22;93321;-71
2023/06/25 11:35:15;;;;;;;3.53;2.85;;;31.10;45.30;;;;;;6215787;22;91712;-71
2023/06/25 11:37:44;;;;;;;5.28;2.63;;;31.10;43.40;;;;;;6215481;22;92466;-71
2023/06/25 11:40:27;;;;;;;5.18;2.20;;;31.00;43.80;;;;;;6215778;22;92363;-71
2023/06/25 11:42:53;;;;;;;3.67;2.80;;;31.00;45.40;;;;;;6215246;22;93752;-69
2023/06/25 11:45:20;;;;;;;3.60;2.50;;;31.00;46.10;;;;;;6215597;22;93241;-70
2023/06/25 11:47:50;;;;;;;3.97;2.53;;;31.10;45.40;;;;;;6216012;22;92229;-71
2023/06/25 11:50:28;;;;;;;5.28;3.05;;;31.20;44.50;;;;;;6216697;22;92720;-69
2023/06/25 11:52:55;;;;;;;3.38;2.65;;;31.30;46.40;;;;;;6215133;22;93318;-72
2023/06/25 11:55:21;;;;;;;3.85;2.50;;;31.40;44.30;;;;;;6215375;22;92681;-70
2023/06/25 11:57:48;;;;;;;3.40;2.65;;;31.30;42.90;;;;;;6215844;22;92474;-71
2023/06/25 12:00:14;;;;;;;3.20;1.83;;;31.20;43.80;;;;;;6216808;22;91685;-71
2023/06/25 12:02:40;;;;;;;6.07;3.58;;;31.20;45.10;;;;;;6215415;22;94625;-69
2023/06/25 12:05:06;;;;;;;6.85;3.03;;;31.30;44.00;;;;;;6215134;22;92453;-70
2023/06/25 12:07:32;;;;;;;3.40;2.50;;;31.20;42.50;;;;;;6215746;22;93284;-70
2023/06/25 12:09:58;;;;;;;4.03;2.40;;;31.10;42.10;;;;;;6215548;22;92235;-69
2023/06/25 12:12:23;;;;;;;2.78;2.35;;;30.90;43.40;;;;;;6215626;22;94127;-72
2023/06/25 12:14:49;;;;;;;3.60;2.65;;;31.00;45.00;;;;;;6215652;22;92224;-73
2023/06/25 12:17:15;;;;;;;4.53;2.67;;;31.10;43.60;;;;;;6215309;22;92386;-70
2023/06/25 12:19:42;;;;;;;4.50;2.45;;;31.10;46.10;;;;;;6216584;22;92066;-70
2023/06/25 12:22:08;;;;;;;3.63;1.73;;;31.20;43.40;;;;;;6215452;22;93184;-72
2023/06/25 12:24:34;;;;;;;5.22;2.42;;;31.10;45.60;;;;;;6215899;22;92768;-70
2023/06/25 12:27:00;;;;;;;4.95;2.83;;;31.30;45.60;;;;;;6215887;22;92639;-70
2023/06/25 12:29:25;;;;;;;5.72;3.13;;;31.40;46.20;;;;;;6216405;22;92544;-69
2023/06/25 12:31:51;;;;;;;5.57;2.65;;;31.50;44.60;;;;;;6215273;22;93541;-71
2023/06/25 12:34:17;;;;;;;4.13;3.10;;;31.60;45.60;;;;;;6215566;22;92671;-71
2023/06/25 12:36:42;;;;;;;3.95;2.63;;;31.40;44.10;;;;;;6216040;22;92420;-72
2023/06/25 12:39:08;;;;;;;6.50;2.58;;;31.50;43.50;;;;;;6216160;22;92411;-71
2023/06/25 12:41:34;;;;;;;5.93;2.85;;;31.50;45.20;;;;;;6215298;22;93028;-69
2023/06/25 12:43:59;;;;;;;4.13;3.13;;;31.40;47.00;;;;;;6215285;22;92296;-70
2023/06/25 12:46:25;;;;;;;3.97;2.40;;;31.50;46.40;;;;;;6215910;22;92639;-70
2023/06/25 12:48:51;;;;;;;4.78;3.50;;;31.70;44.50;;;;;;6216736;22;91463;-70
2023/06/25 12:51:16;;;;;;;3.75;2.80;;;31.50;43.60;;;;;;6215156;22;93058;-71
2023/06/25 12:53:42;;;;;;;4.00;2.58;;;31.60;44.60;;;;;;6215831;22;92825;-70
2023/06/25 12:56:08;;;;;;;4.97;2.85;;;31.50;44.20;;;;;;6214385;22;93164;-70
2023/06/25 12:58:33;;;;;;;4.35;3.20;;;31.50;45.50;;;;;;6216453;22;92349;-70
2023/06/25 13:00:59;;;;;;;5.45;3.10;;;31.50;45.40;;;;;;6214736;22;92636;-71
2023/06/25 13:03:25;;;;;;;3.90;2.72;;;31.60;43.90;;;;;;6215401;22;92953;-69
2023/06/25 13:05:50;;;;;;;3.67;2.92;;;31.40;43.80;;;;;;6215445;22;92502;-70
2023/06/25 13:08:16;;;;;;;6.18;2.53;;;31.30;45.80;;;;;;6215890;22;92575;-70
2023/06/25 13:10:42;;;;;;;3.67;2.40;;;31.30;42.60;;;;;;6215605;22;93637;-70
2023/06/25 13:13:08;;;;;;;3.00;2.08;;;31.10;42.70;;;;;;6215228;22;92669;-70
2023/06/25 13:15:34;;;;;;;3.45;1.80;;;31.10;43.00;;;;;;6215964;22;92345;-71
2023/06/25 13:18:01;;;;;;;3.70;2.42;;;31.30;43.30;;;;;;6215574;22;92463;-70
2023/06/25 13:20:27;;;;;;;3.88;2.10;;;31.20;43.20;;;;;;6214443;22;93987;-69
2023/06/25 13:22:52;;;;;;;4.22;2.67;;;31.20;42.70;;;;;;6215779;22;93720;-70
2023/06/25 13:25:18;;;;;;;3.58;2.60;;;31.20;43.80;;;;;;6214981;22;92284;-69
2023/06/25 13:27:44;;;;;;;5.97;2.42;;;31.20;44.90;;;;;;6216386;22;92451;-70
2023/06/25 13:30:11;;;;;;;3.25;2.42;;;31.30;43.00;;;;;;6214803;22;92690;-70
2023/06/25 13:32:37;;;;;;;3.20;2.20;;;31.30;41.30;;;;;;6187986;22;92811;-70
2023/06/25 13:35:03;;;;;;;3.05;2.22;;;31.30;42.90;;;;;;6215126;22;92438;-70
2023/06/25 13:37:29;;;;;;;4.13;2.78;;;31.30;42.70;;;;;;6216028;22;91866;-70
2023/06/25 13:39:54;;;;;;;3.17;2.30;;;31.30;44.60;;;;;;6215552;22;92508;-69
2023/06/25 13:42:20;;;;;;;3.28;1.92;;;31.40;43.90;;;;;;6214623;22;92908;-69
2023/06/25 13:44:46;;;;;;;3.95;2.90;;;31.50;40.10;;;;;;6215166;22;93478;-71
2023/06/25 13:47:14;;;;;;;2.85;2.25;;;31.50;44.30;;;;;;6215071;22;92200;-71
2023/06/25 13:49:40;;;;;;;3.40;2.58;;;31.60;39.30;;;;;;6214660;22;93390;-72
2023/06/25 13:52:06;;;;;;;3.80;2.38;;;31.50;41.00;;;;;;6215149;22;92788;-72
2023/06/25 13:54:32;;;;;;;3.10;1.88;;;31.50;42.00;;;;;;6215424;22;92673;-70
2023/06/25 13:56:58;;;;;;;3.58;1.85;;;31.50;40.10;;;;;;6215515;22;92397;-71
2023/06/25 13:59:23;;;;;;;6.68;1.85;;;31.50;41.00;;;;;;6214889;22;92645;-70
2023/06/25 14:01:49;;;;;;;3.17;2.35;;;31.50;42.30;;;;;;6214854;22;92710;-70
2023/06/25 14:04:15;;;;;;;2.25;1.90;;;31.50;39.30;;;;;;6215244;22;92552;-71
2023/06/25 14:06:41;;;;;;;3.10;2.15;;;31.40;39.80;;;;;;6215375;22;92245;-70
2023/06/25 14:09:07;;;;;;;3.25;2.10;;;31.40;38.60;;;;;;6214185;22;93584;-70
2023/06/25 14:11:33;;;;;;;3.47;2.53;;;31.40;39.90;;;;;;6214630;22;93357;-68
2023/06/25 14:13:58;;;;;;;4.00;2.30;;;31.40;38.80;;;;;;6215361;22;92400;-71
2023/06/25 14:16:31;;;;;;;4.00;2.97;;;31.40;40.20;;;;;;6214461;22;92517;-72
2023/06/25 14:19:00;;;;;;;4.13;2.33;;;31.30;39.30;;;;;;6214607;22;93754;-70
2023/06/25 14:21:30;;;;;;;8.20;2.22;;;31.30;39.40;;;;;;6214424;22;92751;-70
2023/06/25 14:23:56;;;;;;;3.92;2.80;;;31.30;39.60;;;;;;6215580;22;92304;-70
2023/06/25 14:26:22;;;;;;;4.50;3.33;;;31.20;40.70;;;;;;6217182;22;91512;-71
2023/06/25 14:28:47;;;;;;;4.22;2.05;;;31.30;39.00;;;;;;6215926;22;93101;-71
2023/06/25 14:31:13;;;;;;;3.47;2.30;;;31.20;40.20;;;;;;6216134;22;92314;-71
2023/06/25 14:33:39;;;;;;;2.55;1.80;;;31.20;41.10;;;;;;6215433;22;93370;-70
2023/06/25 14:36:06;;;;;;;4.63;2.05;;;31.20;40.70;;;;;;6217451;22;92373;-71
2023/06/25 14:38:33;;;;;;;3.47;2.08;;;31.20;38.30;;;;;;6215302;22;93673;-71
2023/06/25 14:40:59;;;;;;;4.55;2.53;;;31.20;39.70;;;;;;6216057;22;92147;-70
2023/06/25 14:43:24;;;;;;;3.08;2.17;;;31.20;40.40;;;;;;6216457;22;92248;-72
2023/06/25 14:45:51;;;;;;;4.25;2.60;;;31.30;40.40;;;;;;6216381;22;92360;-70
2023/06/25 14:48:17;;;;;;;3.22;2.45;;;31.30;41.20;;;;;;6215790;22;92546;-71
2023/06/25 14:50:43;;;;;;;3.70;2.28;;;31.10;39.70;;;;;;6216449;22;93147;-71
2023/06/25 14:53:08;;;;;;;3.70;2.58;;;31.20;40.60;;;;;;6216248;22;92264;-71
2023/06/25 14:55:34;;;;;;;3.80;2.47;;;31.20;39.50;;;;;;6189735;22;92918;-72
2023/06/25 14:57:59;;;;;;;3.67;2.28;;;31.20;40.50;;;;;;6215105;22;94051;-71
2023/06/25 15:00:25;;;;;;;3.13;2.28;;;31.20;40.10;;;;;;6215935;22;94159;-72
2023/06/25 15:02:51;;;;;;;6.40;2.50;;;31.30;39.90;;;;;;6216081;22;92320;-71
2023/06/25 15:05:16;;;;;;;5.55;2.70;;;31.20;41.40;;;;;;6216554;22;92346;-71
2023/06/25 15:07:42;;;;;;;3.33;2.55;;;31.10;40.90;;;;;;6215131;22;92970;-71
2023/06/25 15:10:08;;;;;;;3.88;2.65;;;31.10;41.50;;;;;;6188998;22;93683;-70
2023/06/25 15:12:34;;;;;;;3.15;2.58;;;31.10;39.70;;;;;;6215861;22;92480;-70
2023/06/25 15:15:00;;;;;;;4.85;3.10;;;31.10;39.00;;;;;;6216849;22;91809;-71
2023/06/25 15:17:26;;;;;;;4.97;2.72;;;31.10;39.90;;;;;;6215249;22;93254;-72
2023/06/25 15:19:52;;;;;;;3.30;2.38;;;31.10;40.00;;;;;;6215548;22;92635;-73
2023/06/25 15:22:18;;;;;;;8.70;3.00;;;31.10;37.80;;;;;;6215349;22;93352;-72
2023/06/25 15:24:44;;;;;;;5.65;2.53;;;31.00;39.80;;;;;;6215419;22;92375;-70
2023/06/25 15:27:10;;;;;;;3.42;1.90;;;31.00;39.70;;;;;;6215434;22;93316;-71
2023/06/25 15:29:36;;;;;;;3.60;2.38;;;31.00;39.70;;;;;;6215648;22;93303;-70
2023/06/25 15:32:02;;;;;;;4.68;2.60;;;31.00;38.90;;;;;;6214859;22;92333;-71
2023/06/25 15:34:28;;;;;;;4.68;3.05;;;31.00;40.00;;;;;;6215853;22;92388;-71
2023/06/25 15:36:55;;;;;;;3.10;2.35;;;31.00;39.20;;;;;;6215496;22;93930;-71
2023/06/25 15:39:20;;;;;;;5.28;2.58;;;30.90;39.20;;;;;;6216038;22;92157;-70
2023/06/25 15:41:46;;;;;;;5.22;3.00;;;30.90;40.70;;;;;;6216090;22;92374;-70
2023/06/25 15:44:12;;;;;;;5.07;2.88;;;30.90;38.20;;;;;;6215702;22;92431;-70
2023/06/25 15:46:37;;;;;;;2.90;2.22;;;30.80;39.40;;;;;;6214884;22;94029;-73
2023/06/25 15:49:03;;;;;;;6.72;2.33;;;30.90;39.10;;;;;;6214994;22;93673;-49
2023/06/25 15:51:29;;;;;;;8.80;2.53;;;30.80;44.70;;;;;;6215987;22;92426;-50
2023/06/25 15:53:55;;;;;;;7.13;2.45;;;30.80;45.00;;;;;;6216300;22;92402;-53
2023/06/25 15:56:21;;;;;;;13.02;3.13;;;30.50;42.60;;;;;;6215647;22;93352;-53